sensor_id;sensor_type;location;lat;lon;timestamp;pressure;altitude;pressure_sealevel;temperature;humidity
33151;BME280;19508;42.578;23.416;2023-09-18T00:02:06;94205.84;;;18.80;88.24
33151;BME280;19508;42.578;23.416;2023-09-18T00:04:32;94194.50;;;18.73;88.06
33151;BME280;19508;42.578;23.416;2023-09-18T00:06:57;94194.84;;;18.85;88.15
33151;BME280;19508;42.578;23.416;2023-09-18T00:09:22;94200.09;;;18.82;88.24
33151;BME280;19508;42.578;23.416;2023-09-18T00:11:48;94202.44;;;18.88;87.94
33151;BME280;19508;42.578;23.416;2023-09-18T00:14:13;94201.47;;;18.79;88.63
33151;BME280;19508;42.578;23.416;2023-09-18T00:16:39;94189.84;;;18.74;88.24
33151;BME280;19508;42.578;23.416;2023-09-18T00:19:04;94189.75;;;18.79;88.19
33151;BME280;19508;42.578;23.416;2023-09-18T00:21:32;94180.75;;;18.78;87.71
33151;BME280;19508;42.578;23.416;2023-09-18T00:23:58;94192.28;;;18.75;87.98
33151;BME280;19508;42.578;23.416;2023-09-18T00:26:25;94191.09;;;18.81;88.01
33151;BME280;19508;42.578;23.416;2023-09-18T00:28:50;94190.84;;;18.78;87.51
33151;BME280;19508;42.578;23.416;2023-09-18T00:31:15;94195.88;;;18.71;88.00
33151;BME280;19508;42.578;23.416;2023-09-18T00:33:41;94186.22;;;18.78;87.41
33151;BME280;19508;42.578;23.416;2023-09-18T00:36:06;94187.41;;;18.72;87.95
33151;BME280;19508;42.578;23.416;2023-09-18T00:38:31;94188.44;;;18.76;88.01
33151;BME280;19508;42.578;23.416;2023-09-18T00:40:57;94186.22;;;18.78;87.61
33151;BME280;19508;42.578;23.416;2023-09-18T00:43:22;94191.38;;;18.80;87.34
33151;BME280;19508;42.578;23.416;2023-09-18T00:45:48;94187.78;;;18.66;87.83
33151;BME280;19508;42.578;23.416;2023-09-18T00:48:17;94190.16;;;18.72;88.10
33151;BME280;19508;42.578;23.416;2023-09-18T00:50:46;94203.69;;;18.77;87.76
33151;BME280;19508;42.578;23.416;2023-09-18T00:53:18;94194.34;;;18.83;87.43
33151;BME280;19508;42.578;23.416;2023-09-18T00:55:45;94192.22;;;18.80;87.17
33151;BME280;19508;42.578;23.416;2023-09-18T00:58:11;94200.38;;;18.80;86.93
33151;BME280;19508;42.578;23.416;2023-09-18T01:00:36;94195.50;;;18.77;87.35
33151;BME280;19508;42.578;23.416;2023-09-18T01:03:02;94194.09;;;18.80;87.39
33151;BME280;19508;42.578;23.416;2023-09-18T01:05:32;94197.56;;;18.85;86.97
33151;BME280;19508;42.578;23.416;2023-09-18T01:07:58;94194.50;;;18.73;88.02
33151;BME280;19508;42.578;23.416;2023-09-18T01:10:26;94199.78;;;18.83;87.72
33151;BME280;19508;42.578;23.416;2023-09-18T01:13:02;94200.00;;;18.87;86.56
33151;BME280;19508;42.578;23.416;2023-09-18T01:15:35;94208.13;;;18.92;86.74
33151;BME280;19508;42.578;23.416;2023-09-18T01:18:06;94195.34;;;18.87;86.89
33151;BME280;19508;42.578;23.416;2023-09-18T01:20:33;94207.31;;;18.92;86.83
33151;BME280;19508;42.578;23.416;2023-09-18T01:22:59;94201.41;;;18.84;86.73
33151;BME280;19508;42.578;23.416;2023-09-18T01:25:24;94202.22;;;18.85;86.91
33151;BME280;19508;42.578;23.416;2023-09-18T01:27:49;94202.97;;;18.91;86.63
33151;BME280;19508;42.578;23.416;2023-09-18T01:30:16;94200.44;;;18.94;86.35
33151;BME280;19508;42.578;23.416;2023-09-18T01:32:43;94197.19;;;18.92;86.61
33151;BME280;19508;42.578;23.416;2023-09-18T01:35:09;94197.28;;;18.87;86.06
33151;BME280;19508;42.578;23.416;2023-09-18T01:37:37;94194.34;;;18.83;86.37
33151;BME280;19508;42.578;23.416;2023-09-18T01:40:04;94191.81;;;18.87;86.28
33151;BME280;19508;42.578;23.416;2023-09-18T01:42:33;94201.72;;;18.83;86.31
33151;BME280;19508;42.578;23.416;2023-09-18T01:45:00;94207.47;;;18.81;86.69
33151;BME280;19508;42.578;23.416;2023-09-18T01:47:25;94207.81;;;18.75;87.20
33151;BME280;19508;42.578;23.416;2023-09-18T01:49:53;94202.00;;;18.81;86.77
33151;BME280;19508;42.578;23.416;2023-09-18T01:52:19;94196.56;;;18.81;86.78
33151;BME280;19508;42.578;23.416;2023-09-18T01:54:45;94201.78;;;18.78;87.28
33151;BME280;19508;42.578;23.416;2023-09-18T01:57:10;94193.22;;;18.84;86.56
33151;BME280;19508;42.578;23.416;2023-09-18T01:59:37;94204.88;;;18.90;86.33
33151;BME280;19508;42.578;23.416;2023-09-18T02:02:03;94206.34;;;18.82;86.94
33151;BME280;19508;42.578;23.416;2023-09-18T02:04:33;94209.38;;;18.81;87.07
33151;BME280;19508;42.578;23.416;2023-09-18T02:06:59;94208.94;;;18.93;86.40
33151;BME280;19508;42.578;23.416;2023-09-18T02:09:24;94209.78;;;18.88;86.30
33151;BME280;19508;42.578;23.416;2023-09-18T02:11:50;94209.53;;;18.90;86.72
33151;BME280;19508;42.578;23.416;2023-09-18T02:14:15;94203.63;;;18.82;86.89
33151;BME280;19508;42.578;23.416;2023-09-18T02:16:42;94208.03;;;18.78;87.43
33151;BME280;19508;42.578;23.416;2023-09-18T02:19:11;94216.16;;;18.83;87.41
33151;BME280;19508;42.578;23.416;2023-09-18T02:21:38;94216.75;;;18.80;87.11
33151;BME280;19508;42.578;23.416;2023-09-18T02:24:03;94218.59;;;18.85;87.20
33151;BME280;19508;42.578;23.416;2023-09-18T02:26:29;94216.59;;;18.91;87.19
33151;BME280;19508;42.578;23.416;2023-09-18T02:29:00;94215.78;;;18.90;86.83
33151;BME280;19508;42.578;23.416;2023-09-18T02:31:25;94206.88;;;18.84;86.66
33151;BME280;19508;42.578;23.416;2023-09-18T02:33:51;94211.31;;;18.80;86.34
33151;BME280;19508;42.578;23.416;2023-09-18T02:36:16;94213.94;;;18.85;86.05
33151;BME280;19508;42.578;23.416;2023-09-18T02:38:42;94215.03;;;18.84;86.47
33151;BME280;19508;42.578;23.416;2023-09-18T02:41:08;94214.44;;;18.87;86.32
33151;BME280;19508;42.578;23.416;2023-09-18T02:43:34;94209.53;;;18.90;86.42
33151;BME280;19508;42.578;23.416;2023-09-18T02:45:59;94211.97;;;18.91;86.19
33151;BME280;19508;42.578;23.416;2023-09-18T02:48:25;94204.28;;;18.93;86.10
33151;BME280;19508;42.578;23.416;2023-09-18T02:50:50;94213.78;;;18.96;85.76
33151;BME280;19508;42.578;23.416;2023-09-18T02:53:19;94212.59;;;19.02;85.51
33151;BME280;19508;42.578;23.416;2023-09-18T02:55:47;94218.66;;;18.99;85.20
33151;BME280;19508;42.578;23.416;2023-09-18T02:58:12;94213.22;;;18.99;85.42
33151;BME280;19508;42.578;23.416;2023-09-18T03:00:42;94214.09;;;18.94;85.63
33151;BME280;19508;42.578;23.416;2023-09-18T03:03:08;94217.03;;;18.98;85.33
33151;BME280;19508;42.578;23.416;2023-09-18T03:05:34;94224.84;;;18.85;85.80
33151;BME280;19508;42.578;23.416;2023-09-18T03:07:59;94224.84;;;18.85;86.02
33151;BME280;19508;42.578;23.416;2023-09-18T03:10:24;94222.63;;;18.87;85.73
33151;BME280;19508;42.578;23.416;2023-09-18T03:12:50;94220.03;;;18.96;84.72
33151;BME280;19508;42.578;23.416;2023-09-18T03:15:15;94219.84;;;18.93;85.20
33151;BME280;19508;42.578;23.416;2023-09-18T03:17:41;94220.19;;;18.86;86.16
33151;BME280;19508;42.578;23.416;2023-09-18T03:20:08;94222.56;;;18.93;85.18
33151;BME280;19508;42.578;23.416;2023-09-18T03:22:34;94222.28;;;18.94;85.30
33151;BME280;19508;42.578;23.416;2023-09-18T03:24:59;94214.38;;;18.93;85.37
33151;BME280;19508;42.578;23.416;2023-09-18T03:27:25;94218.38;;;18.81;85.74
33151;BME280;19508;42.578;23.416;2023-09-18T03:29:54;94215.72;;;18.76;86.34
33151;BME280;19508;42.578;23.416;2023-09-18T03:32:21;94209.59;;;18.66;88.23
33151;BME280;19508;42.578;23.416;2023-09-18T03:34:46;94206.00;;;18.46;87.94
33151;BME280;19508;42.578;23.416;2023-09-18T03:37:12;94202.69;;;18.49;87.83
33151;BME280;19508;42.578;23.416;2023-09-18T03:39:37;94208.66;;;18.51;87.58
33151;BME280;19508;42.578;23.416;2023-09-18T03:42:03;94214.13;;;18.51;88.54
33151;BME280;19508;42.578;23.416;2023-09-18T03:44:28;94198.69;;;18.42;89.01
33151;BME280;19508;42.578;23.416;2023-09-18T03:46:53;94199.06;;;18.54;88.43
33151;BME280;19508;42.578;23.416;2023-09-18T03:49:19;94197.41;;;18.58;87.75
33151;BME280;19508;42.578;23.416;2023-09-18T03:51:44;94199.00;;;18.59;87.91
33151;BME280;19508;42.578;23.416;2023-09-18T03:54:10;94190.84;;;18.59;87.58
33151;BME280;19508;42.578;23.416;2023-09-18T03:56:35;94200.50;;;18.70;86.87
33151;BME280;19508;42.578;23.416;2023-09-18T03:59:01;94200.75;;;18.74;86.79
33151;BME280;19508;42.578;23.416;2023-09-18T04:01:27;94198.31;;;18.72;86.87
33151;BME280;19508;42.578;23.416;2023-09-18T04:03:52;94183.41;;;18.65;87.20
33151;BME280;19508;42.578;23.416;2023-09-18T04:06:20;94191.81;;;18.68;87.28
33151;BME280;19508;42.578;23.416;2023-09-18T04:08:46;94196.78;;;18.66;87.18
33151;BME280;19508;42.578;23.416;2023-09-18T04:11:12;94189.59;;;18.70;86.71
33151;BME280;19508;42.578;23.416;2023-09-18T04:13:37;94197.53;;;18.72;86.56
33151;BME280;19508;42.578;23.416;2023-09-18T04:16:06;94191.47;;;18.75;86.44
33151;BME280;19508;42.578;23.416;2023-09-18T04:18:31;94199.34;;;18.76;85.57
33151;BME280;19508;42.578;23.416;2023-09-18T04:20:58;94187.47;;;18.67;85.77
33151;BME280;19508;42.578;23.416;2023-09-18T04:23:26;94196.22;;;18.64;86.25
33151;BME280;19508;42.578;23.416;2023-09-18T04:25:53;94202.78;;;18.63;86.09
33151;BME280;19508;42.578;23.416;2023-09-18T04:28:21;94196.22;;;18.64;85.39
33151;BME280;19508;42.578;23.416;2023-09-18T04:30:47;94199.50;;;18.66;85.65
33151;BME280;19508;42.578;23.416;2023-09-18T04:33:16;94208.69;;;18.70;85.82
33151;BME280;19508;42.578;23.416;2023-09-18T04:35:43;94205.97;;;18.70;85.87
33151;BME280;19508;42.578;23.416;2023-09-18T04:38:29;94196.00;;;18.79;85.21
33151;BME280;19508;42.578;23.416;2023-09-18T04:40:59;94200.97;;;18.77;85.33
33151;BME280;19508;42.578;23.416;2023-09-18T04:43:25;94190.41;;;18.71;85.12
33151;BME280;19508;42.578;23.416;2023-09-18T04:45:50;94203.78;;;18.72;85.09
33151;BME280;19508;42.578;23.416;2023-09-18T04:48:16;94202.38;;;18.75;84.51
33151;BME280;19508;42.578;23.416;2023-09-18T04:50:45;94206.94;;;18.79;84.15
33151;BME280;19508;42.578;23.416;2023-09-18T04:53:10;94201.44;;;18.60;85.34
33151;BME280;19508;42.578;23.416;2023-09-18T04:55:36;94204.13;;;18.66;84.90
33151;BME280;19508;42.578;23.416;2023-09-18T04:58:03;94207.06;;;18.69;84.74
33151;BME280;19508;42.578;23.416;2023-09-18T05:00:30;94200.81;;;18.69;84.86
33151;BME280;19508;42.578;23.416;2023-09-18T05:02:57;94192.41;;;18.65;85.09
33151;BME280;19508;42.578;23.416;2023-09-18T05:05:25;94200.31;;;18.67;84.89
33151;BME280;19508;42.578;23.416;2023-09-18T05:07:50;94188.69;;;18.56;85.51
33151;BME280;19508;42.578;23.416;2023-09-18T05:10:16;94188.31;;;18.63;85.05
33151;BME280;19508;42.578;23.416;2023-09-18T05:12:42;94197.09;;;18.59;84.82
33151;BME280;19508;42.578;23.416;2023-09-18T05:15:08;94193.75;;;18.68;84.22
33151;BME280;19508;42.578;23.416;2023-09-18T05:17:45;94196.91;;;18.75;83.68
33151;BME280;19508;42.578;23.416;2023-09-18T05:20:17;94205.41;;;18.73;83.89
33151;BME280;19508;42.578;23.416;2023-09-18T05:22:43;94206.78;;;18.71;84.24
33151;BME280;19508;42.578;23.416;2023-09-18T05:25:09;94205.25;;;18.83;84.16
33151;BME280;19508;42.578;23.416;2023-09-18T05:27:36;94205.03;;;18.99;83.93
33151;BME280;19508;42.578;23.416;2023-09-18T05:30:10;94210.66;;;19.21;81.52
33151;BME280;19508;42.578;23.416;2023-09-18T05:32:36;94202.81;;;19.33;80.71
33151;BME280;19508;42.578;23.416;2023-09-18T05:35:02;94197.78;;;19.40;80.92
33151;BME280;19508;42.578;23.416;2023-09-18T05:37:31;94204.19;;;19.50;79.40
33151;BME280;19508;42.578;23.416;2023-09-18T05:39:57;94202.47;;;19.54;79.18
33151;BME280;19508;42.578;23.416;2023-09-18T05:42:22;94200.00;;;19.38;78.91
33151;BME280;19508;42.578;23.416;2023-09-18T05:44:47;94212.16;;;19.46;79.12
33151;BME280;19508;42.578;23.416;2023-09-18T05:47:13;94203.53;;;19.39;79.15
33151;BME280;19508;42.578;23.416;2023-09-18T05:49:38;94198.97;;;19.34;78.16
33151;BME280;19508;42.578;23.416;2023-09-18T05:52:03;94209.41;;;19.32;78.54
33151;BME280;19508;42.578;23.416;2023-09-18T05:54:29;94209.78;;;19.26;79.08
33151;BME280;19508;42.578;23.416;2023-09-18T05:56:54;94210.88;;;19.25;78.65
33151;BME280;19508;42.578;23.416;2023-09-18T05:59:20;94215.44;;;19.29;78.56
33151;BME280;19508;42.578;23.416;2023-09-18T06:01:45;94214.56;;;19.34;78.46
33151;BME280;19508;42.578;23.416;2023-09-18T06:04:10;94222.50;;;19.30;78.08
33151;BME280;19508;42.578;23.416;2023-09-18T06:06:38;94227.28;;;19.25;79.41
33151;BME280;19508;42.578;23.416;2023-09-18T06:09:03;94210.50;;;19.31;79.13
33151;BME280;19508;42.578;23.416;2023-09-18T06:11:29;94214.88;;;19.32;78.92
33151;BME280;19508;42.578;23.416;2023-09-18T06:13:54;94215.78;;;19.41;77.52
33151;BME280;19508;42.578;23.416;2023-09-18T06:16:19;94212.81;;;19.57;77.47
33151;BME280;19508;42.578;23.416;2023-09-18T06:18:45;94220.94;;;19.62;77.38
33151;BME280;19508;42.578;23.416;2023-09-18T06:21:10;94226.41;;;19.62;77.61
33151;BME280;19508;42.578;23.416;2023-09-18T06:23:36;94219.34;;;19.88;76.71
33151;BME280;19508;42.578;23.416;2023-09-18T06:26:01;94220.59;;;20.37;74.50
33151;BME280;19508;42.578;23.416;2023-09-18T06:28:27;94223.41;;;20.73;72.94
33151;BME280;19508;42.578;23.416;2023-09-18T06:30:52;94217.44;;;21.07;70.75
33151;BME280;19508;42.578;23.416;2023-09-18T06:33:19;94223.44;;;21.46;69.60
33151;BME280;19508;42.578;23.416;2023-09-18T06:35:44;94224.09;;;21.29;69.01
33151;BME280;19508;42.578;23.416;2023-09-18T06:38:10;94219.50;;;21.24;68.46
33151;BME280;19508;42.578;23.416;2023-09-18T06:40:38;94223.22;;;21.42;69.74
33151;BME280;19508;42.578;23.416;2023-09-18T06:43:04;94216.13;;;21.63;68.32
33151;BME280;19508;42.578;23.416;2023-09-18T06:45:29;94221.28;;;21.96;68.18
33151;BME280;19508;42.578;23.416;2023-09-18T06:47:55;94225.09;;;22.48;66.46
33151;BME280;19508;42.578;23.416;2023-09-18T06:50:20;94227.34;;;23.03;64.60
33151;BME280;19508;42.578;23.416;2023-09-18T06:52:46;94223.78;;;23.29;63.20
33151;BME280;19508;42.578;23.416;2023-09-18T06:55:11;94234.97;;;23.67;61.64
33151;BME280;19508;42.578;23.416;2023-09-18T06:57:37;94221.00;;;23.89;61.12
33151;BME280;19508;42.578;23.416;2023-09-18T07:00:03;94219.72;;;23.87;59.25
33151;BME280;19508;42.578;23.416;2023-09-18T07:02:30;94230.56;;;23.49;60.15
33151;BME280;19508;42.578;23.416;2023-09-18T07:04:55;94226.31;;;22.82;62.49
33151;BME280;19508;42.578;23.416;2023-09-18T07:07:20;94227.38;;;22.64;63.79
33151;BME280;19508;42.578;23.416;2023-09-18T07:09:53;94231.97;;;22.37;64.51
33151;BME280;19508;42.578;23.416;2023-09-18T07:12:19;94221.19;;;22.41;66.12
33151;BME280;19508;42.578;23.416;2023-09-18T07:14:45;94222.31;;;23.05;64.50
33151;BME280;19508;42.578;23.416;2023-09-18T07:17:11;94222.19;;;23.45;62.41
33151;BME280;19508;42.578;23.416;2023-09-18T07:19:36;94228.34;;;23.59;60.93
33151;BME280;19508;42.578;23.416;2023-09-18T07:22:01;94223.09;;;23.84;60.98
33151;BME280;19508;42.578;23.416;2023-09-18T07:24:27;94221.09;;;24.19;59.27
33151;BME280;19508;42.578;23.416;2023-09-18T07:26:53;94218.13;;;24.24;58.89
33151;BME280;19508;42.578;23.416;2023-09-18T07:29:18;94222.75;;;24.50;58.55
33151;BME280;19508;42.578;23.416;2023-09-18T07:31:44;94222.66;;;24.67;57.33
33151;BME280;19508;42.578;23.416;2023-09-18T07:34:10;94228.66;;;24.98;56.68
33151;BME280;19508;42.578;23.416;2023-09-18T07:36:36;94228.19;;;24.96;56.94
33151;BME280;19508;42.578;23.416;2023-09-18T07:39:02;94218.47;;;24.61;55.80
33151;BME280;19508;42.578;23.416;2023-09-18T07:41:29;94230.28;;;24.32;57.31
33151;BME280;19508;42.578;23.416;2023-09-18T07:43:55;94223.56;;;24.50;56.06
33151;BME280;19508;42.578;23.416;2023-09-18T07:46:22;94230.91;;;24.37;57.25
33151;BME280;19508;42.578;23.416;2023-09-18T07:48:47;94219.41;;;24.94;54.74
33151;BME280;19508;42.578;23.416;2023-09-18T07:51:13;94231.59;;;25.23;55.27
33151;BME280;19508;42.578;23.416;2023-09-18T07:53:39;94227.16;;;24.80;53.73
33151;BME280;19508;42.578;23.416;2023-09-18T07:56:05;94225.41;;;25.05;54.62
33151;BME280;19508;42.578;23.416;2023-09-18T07:58:31;94221.34;;;25.02;55.36
33151;BME280;19508;42.578;23.416;2023-09-18T08:00:59;94219.28;;;25.41;51.65
33151;BME280;19508;42.578;23.416;2023-09-18T08:03:27;94218.81;;;25.39;53.63
33151;BME280;19508;42.578;23.416;2023-09-18T08:05:54;94223.47;;;26.13;53.52
33151;BME280;19508;42.578;23.416;2023-09-18T08:08:20;94224.34;;;25.93;52.44
33151;BME280;19508;42.578;23.416;2023-09-18T08:10:50;94218.72;;;26.71;50.98
33151;BME280;19508;42.578;23.416;2023-09-18T08:13:16;94219.16;;;26.98;50.57
33151;BME280;19508;42.578;23.416;2023-09-18T08:15:42;94202.50;;;27.19;48.40
33151;BME280;19508;42.578;23.416;2023-09-18T08:18:09;94209.28;;;26.97;48.73
33151;BME280;19508;42.578;23.416;2023-09-18T08:20:34;94212.50;;;27.64;48.49
33151;BME280;19508;42.578;23.416;2023-09-18T08:23:03;94210.47;;;27.48;46.89
33151;BME280;19508;42.578;23.416;2023-09-18T08:25:30;94215.16;;;27.08;46.69
33151;BME280;19508;42.578;23.416;2023-09-18T08:27:56;94213.22;;;27.89;44.79
33151;BME280;19508;42.578;23.416;2023-09-18T08:30:21;94204.06;;;27.60;46.88
33151;BME280;19508;42.578;23.416;2023-09-18T08:32:47;94199.44;;;27.76;44.87
33151;BME280;19508;42.578;23.416;2023-09-18T08:35:13;94195.84;;;28.20;45.78
33151;BME280;19508;42.578;23.416;2023-09-18T08:37:42;94203.47;;;27.79;45.33
33151;BME280;19508;42.578;23.416;2023-09-18T08:40:10;94187.03;;;28.14;44.87
33151;BME280;19508;42.578;23.416;2023-09-18T08:42:38;94189.47;;;28.63;44.23
33151;BME280;19508;42.578;23.416;2023-09-18T08:45:07;94193.47;;;28.81;42.43
33151;BME280;19508;42.578;23.416;2023-09-18T08:47:35;94189.00;;;28.92;44.75
33151;BME280;19508;42.578;23.416;2023-09-18T08:50:01;94176.16;;;29.74;41.60
33151;BME280;19508;42.578;23.416;2023-09-18T08:52:27;94179.03;;;30.00;41.92
33151;BME280;19508;42.578;23.416;2023-09-18T08:54:53;94169.94;;;30.23;39.47
33151;BME280;19508;42.578;23.416;2023-09-18T08:57:19;94179.81;;;30.20;40.75
33151;BME280;19508;42.578;23.416;2023-09-18T08:59:48;94173.78;;;29.95;40.82
33151;BME280;19508;42.578;23.416;2023-09-18T09:02:15;94183.66;;;29.73;41.49
33151;BME280;19508;42.578;23.416;2023-09-18T09:04:41;94177.72;;;29.36;41.80
33151;BME280;19508;42.578;23.416;2023-09-18T09:07:06;94169.97;;;28.75;41.46
33151;BME280;19508;42.578;23.416;2023-09-18T09:09:32;94173.13;;;28.89;42.21
33151;BME280;19508;42.578;23.416;2023-09-18T09:11:57;94178.41;;;29.49;40.75
33151;BME280;19508;42.578;23.416;2023-09-18T09:14:23;94174.19;;;29.39;39.96
33151;BME280;19508;42.578;23.416;2023-09-18T09:16:54;94181.47;;;29.09;40.36
33151;BME280;19508;42.578;23.416;2023-09-18T09:19:40;94178.72;;;29.28;38.83
33151;BME280;19508;42.578;23.416;2023-09-18T09:22:08;94180.16;;;29.22;39.18
33151;BME280;19508;42.578;23.416;2023-09-18T09:27:03;94179.88;;;27.69;43.88
33151;BME280;19508;42.578;23.416;2023-09-18T09:29:29;94172.19;;;28.06;43.08
33151;BME280;19508;42.578;23.416;2023-09-18T09:31:55;94170.59;;;28.53;42.04
33151;BME280;19508;42.578;23.416;2023-09-18T09:34:26;94164.50;;;28.94;41.28
33151;BME280;19508;42.578;23.416;2023-09-18T09:36:56;94170.78;;;28.60;39.66
33151;BME280;19508;42.578;23.416;2023-09-18T09:39:22;94159.03;;;28.31;40.09
33151;BME280;19508;42.578;23.416;2023-09-18T09:41:53;94151.06;;;28.30;40.82
33151;BME280;19508;42.578;23.416;2023-09-18T09:44:19;94158.22;;;28.47;42.35
33151;BME280;19508;42.578;23.416;2023-09-18T09:46:47;94154.16;;;28.91;40.85
33151;BME280;19508;42.578;23.416;2023-09-18T09:49:13;94153.97;;;28.84;39.30
33151;BME280;19508;42.578;23.416;2023-09-18T09:51:41;94149.97;;;29.17;39.63
33151;BME280;19508;42.578;23.416;2023-09-18T09:54:07;94142.31;;;29.30;42.65
33151;BME280;19508;42.578;23.416;2023-09-18T09:56:49;94144.38;;;29.71;38.23
33151;BME280;19508;42.578;23.416;2023-09-18T09:59:16;94141.78;;;29.82;39.24
33151;BME280;19508;42.578;23.416;2023-09-18T10:01:43;94132.59;;;29.20;38.33
33151;BME280;19508;42.578;23.416;2023-09-18T10:06:37;94129.31;;;29.14;39.27
33151;BME280;19508;42.578;23.416;2023-09-18T10:09:03;94131.47;;;29.40;39.05
33151;BME280;19508;42.578;23.416;2023-09-18T10:11:33;94129.91;;;28.88;38.89
33151;BME280;19508;42.578;23.416;2023-09-18T10:14:08;94128.56;;;28.98;39.99
33151;BME280;19508;42.578;23.416;2023-09-18T10:16:36;94126.28;;;29.04;38.70
33151;BME280;19508;42.578;23.416;2023-09-18T10:19:21;94127.56;;;29.26;39.34
33151;BME280;19508;42.578;23.416;2023-09-18T10:22:06;94126.81;;;29.09;37.26
33151;BME280;19508;42.578;23.416;2023-09-18T10:24:37;94129.16;;;28.72;39.58
33151;BME280;19508;42.578;23.416;2023-09-18T10:27:12;94128.00;;;28.42;42.28
33151;BME280;19508;42.578;23.416;2023-09-18T10:29:41;94129.41;;;27.88;39.64
33151;BME280;19508;42.578;23.416;2023-09-18T10:32:07;94131.28;;;27.56;40.97
33151;BME280;19508;42.578;23.416;2023-09-18T10:34:33;94122.47;;;27.10;41.66
33151;BME280;19508;42.578;23.416;2023-09-18T10:37:01;94117.38;;;27.00;42.81
33151;BME280;19508;42.578;23.416;2023-09-18T10:39:30;94109.38;;;26.83;41.99
33151;BME280;19508;42.578;23.416;2023-09-18T10:42:00;94116.09;;;26.57;44.20
33151;BME280;19508;42.578;23.416;2023-09-18T10:44:28;94115.16;;;26.78;47.19
33151;BME280;19508;42.578;23.416;2023-09-18T10:46:53;94098.16;;;27.44;42.78
33151;BME280;19508;42.578;23.416;2023-09-18T10:49:20;94099.88;;;28.08;43.05
33151;BME280;19508;42.578;23.416;2023-09-18T10:51:46;94083.50;;;28.50;40.63
33151;BME280;19508;42.578;23.416;2023-09-18T10:54:16;94083.13;;;29.03;39.28
33151;BME280;19508;42.578;23.416;2023-09-18T10:56:42;94079.91;;;29.20;38.30
33151;BME280;19508;42.578;23.416;2023-09-18T10:59:08;94089.34;;;28.80;38.39
33151;BME280;19508;42.578;23.416;2023-09-18T11:01:34;94092.00;;;28.10;41.70
33151;BME280;19508;42.578;23.416;2023-09-18T11:04:03;94081.41;;;27.96;40.49
33151;BME280;19508;42.578;23.416;2023-09-18T11:11:46;94077.31;;;27.18;42.83
33151;BME280;19508;42.578;23.416;2023-09-18T11:14:14;94080.03;;;27.74;41.09
33151;BME280;19508;42.578;23.416;2023-09-18T11:16:40;94076.53;;;28.56;41.11
33151;BME280;19508;42.578;23.416;2023-09-18T11:19:16;94065.00;;;29.90;38.18
33151;BME280;19508;42.578;23.416;2023-09-18T11:21:42;94071.31;;;30.82;38.54
33151;BME280;19508;42.578;23.416;2023-09-18T11:24:20;94068.69;;;31.23;36.24
33151;BME280;19508;42.578;23.416;2023-09-18T11:26:47;94055.69;;;31.30;34.28
33151;BME280;19508;42.578;23.416;2023-09-18T11:29:15;94059.44;;;31.45;34.50
33151;BME280;19508;42.578;23.416;2023-09-18T11:34:13;94055.97;;;30.65;34.85
33151;BME280;19508;42.578;23.416;2023-09-18T11:36:40;94048.00;;;30.37;36.51
33151;BME280;19508;42.578;23.416;2023-09-18T11:39:05;94045.53;;;30.85;36.04
33151;BME280;19508;42.578;23.416;2023-09-18T11:41:33;94051.00;;;30.78;36.22
33151;BME280;19508;42.578;23.416;2023-09-18T11:46:48;94039.44;;;29.77;37.54
33151;BME280;19508;42.578;23.416;2023-09-18T11:49:22;94031.72;;;29.67;38.14
33151;BME280;19508;42.578;23.416;2023-09-18T11:51:50;94029.59;;;30.82;37.82
33151;BME280;19508;42.578;23.416;2023-09-18T11:54:16;94029.22;;;31.13;35.01
33151;BME280;19508;42.578;23.416;2023-09-18T11:56:42;94028.63;;;31.64;34.33
33151;BME280;19508;42.578;23.416;2023-09-18T11:59:08;94026.00;;;30.78;35.02
33151;BME280;19508;42.578;23.416;2023-09-18T12:01:34;94025.31;;;29.63;38.66
33151;BME280;19508;42.578;23.416;2023-09-18T12:04:05;94022.72;;;28.92;38.58
33151;BME280;19508;42.578;23.416;2023-09-18T12:06:34;94020.34;;;28.56;38.49
33151;BME280;19508;42.578;23.416;2023-09-18T12:09:00;94018.88;;;28.62;38.93
33151;BME280;19508;42.578;23.416;2023-09-18T12:11:25;94014.66;;;30.64;34.72
33151;BME280;19508;42.578;23.416;2023-09-18T12:13:51;94016.34;;;32.61;32.96
33151;BME280;19508;42.578;23.416;2023-09-18T12:16:17;94017.34;;;34.70;31.29
33151;BME280;19508;42.578;23.416;2023-09-18T12:18:50;94013.72;;;34.76;29.71
33151;BME280;19508;42.578;23.416;2023-09-18T12:21:17;94013.28;;;33.71;30.01
33151;BME280;19508;42.578;23.416;2023-09-18T12:23:44;94008.00;;;32.61;32.26
33151;BME280;19508;42.578;23.416;2023-09-18T12:26:14;94005.31;;;33.87;31.35
33151;BME280;19508;42.578;23.416;2023-09-18T12:28:42;94004.53;;;33.87;30.62
33151;BME280;19508;42.578;23.416;2023-09-18T12:31:12;94005.72;;;32.81;30.88
33151;BME280;19508;42.578;23.416;2023-09-18T12:33:39;94023.28;;;31.15;34.27
33151;BME280;19508;42.578;23.416;2023-09-18T12:36:06;94014.53;;;30.83;33.97
33151;BME280;19508;42.578;23.416;2023-09-18T12:38:32;93999.09;;;30.32;35.80
33151;BME280;19508;42.578;23.416;2023-09-18T12:40:59;94006.75;;;29.47;38.33
33151;BME280;19508;42.578;23.416;2023-09-18T12:43:41;94000.47;;;28.89;39.14
33151;BME280;19508;42.578;23.416;2023-09-18T12:46:08;94014.88;;;29.79;38.13
33151;BME280;19508;42.578;23.416;2023-09-18T12:48:38;94000.31;;;29.63;37.09
33151;BME280;19508;42.578;23.416;2023-09-18T12:51:10;94000.53;;;29.51;36.41
33151;BME280;19508;42.578;23.416;2023-09-18T12:53:35;94002.41;;;28.69;38.79
33151;BME280;19508;42.578;23.416;2023-09-18T12:56:08;94002.72;;;28.13;39.04
33151;BME280;19508;42.578;23.416;2023-09-18T12:58:34;93996.38;;;27.65;41.09
33151;BME280;19508;42.578;23.416;2023-09-18T13:01:07;93999.78;;;27.59;41.10
33151;BME280;19508;42.578;23.416;2023-09-18T13:03:55;93996.75;;;27.48;42.36
33151;BME280;19508;42.578;23.416;2023-09-18T13:06:22;93987.97;;;28.25;40.12